Time;durP1;ratioP1;P1;durP2;ratioP2;P2;SDS_P1;SDS_P2;PMS_P1;PMS_P2;Temp;Humidity;BMP_temperature;BMP_pressure;BME280_temperature;BME280_humidity;BME280_pressure;Samples;Min_cycle;Max_cycle;Signal;HPM_P1;HPM_P2
2023/02/28 00:01:39;;;;;;;;;;;;;;;-0.40;79.47;101704.80;106232;1278;24223;-56
2023/02/28 00:04:09;;;;;;;;;;;;;;;-0.38;79.40;101702.30;106155;1278;22509;-57
2023/02/28 00:06:38;;;;;;;;;;;;;;;-0.38;79.42;101700.50;106347;1264;26542;-56
2023/02/28 00:09:07;;;;;;;;;;;;;;;-0.37;79.37;101697.30;106399;1274;22571;-56
2023/02/28 00:11:37;;;;;;;;;;;;;;;-0.38;79.34;101700.04;106225;1278;25623;-55
2023/02/28 00:14:07;;;;;;;;;;;;;;;-0.38;79.41;101698.94;106130;1272;25378;-57
2023/02/28 00:16:36;;;;;;;;;;;;;;;-0.36;79.56;101699.99;106178;1271;26134;-57
2023/02/28 00:19:05;;;;;;;;;;;;;;;-0.36;79.34;101699.53;106170;1278;24216;-57
2023/02/28 00:21:35;;;;;;;;;;;;;;;-0.36;79.07;101703.53;106259;1265;22590;-55
2023/02/28 00:24:05;;;;;;;;;;;;;;;-0.35;79.00;101702.13;106149;1271;24385;-54
2023/02/28 00:26:34;;;;;;;;;;;;;;;-0.35;78.89;101700.25;106163;1271;25338;-56
2023/02/28 00:29:03;;;;;;;;;;;;;;;-0.34;78.74;101698.92;106166;1278;25112;-57
2023/02/28 00:31:32;;;;;;;;;;;;;;;-0.34;78.56;101698.77;106175;1275;22510;-57
2023/02/28 00:34:01;;;;;;;;;;;;;;;-0.32;78.74;101699.05;106203;1275;26526;-56
2023/02/28 00:36:30;;;;;;;;;;;;;;;-0.31;78.91;101701.80;106138;1275;25552;-57
2023/02/28 00:39:00;;;;;;;;;;;;;;;-0.31;78.77;101695.36;106168;1271;25491;-54
2023/02/28 00:41:29;;;;;;;;;;;;;;;-0.30;79.21;101695.79;106221;1261;22497;-57
2023/02/28 00:43:58;;;;;;;;;;;;;;;-0.29;79.02;101692.96;106240;1278;23465;-57
2023/02/28 00:46:28;;;;;;;;;;;;;;;-0.28;79.05;101687.39;106209;1271;25153;-54
2023/02/28 00:48:57;;;;;;;;;;;;;;;-0.28;79.03;101684.67;106130;1271;22767;-57
2023/02/28 00:51:26;;;;;;;;;;;;;;;-0.26;78.99;101688.70;106119;1271;25332;-55
2023/02/28 00:53:55;;;;;;;;;;;;;;;-0.24;79.01;101687.86;106168;1267;22514;-57
2023/02/28 00:56:24;;;;;;;;;;;;;;;-0.25;79.04;101684.55;106119;1264;26958;-55
2023/02/28 00:58:54;;;;;;;;;;;;;;;-0.27;78.94;101686.73;106220;1278;25334;-54
2023/02/28 01:01:23;;;;;;;;;;;;;;;-0.28;78.98;101685.84;106139;1278;25288;-58
2023/02/28 01:03:52;;;;;;;;;;;;;;;-0.29;78.89;101691.01;106270;1278;22506;-57
2023/02/28 01:06:21;;;;;;;;;;;;;;;-0.28;78.87;101692.59;106173;1274;22509;-54
2023/02/28 01:08:50;;;;;;;;;;;;;;;-0.28;79.07;101693.06;106194;1277;25528;-54
2023/02/28 01:11:20;;;;;;;;;;;;;;;-0.27;79.18;101689.15;106207;1278;22537;-54
2023/02/28 01:13:49;;;;;;;;;;;;;;;-0.28;79.22;101688.13;106191;1278;22524;-54
2023/02/28 01:16:18;;;;;;;;;;;;;;;-0.27;79.31;101686.02;106279;1275;24212;-56
2023/02/28 01:18:47;;;;;;;;;;;;;;;-0.27;79.26;101683.83;106185;1277;25255;-56
2023/02/28 01:21:17;;;;;;;;;;;;;;;-0.28;79.19;101683.02;106179;1264;24284;-57
2023/02/28 01:23:47;;;;;;;;;;;;;;;-0.29;79.32;101681.68;106236;1271;24387;-56
2023/02/28 01:26:17;;;;;;;;;;;;;;;-0.30;79.39;101683.00;106119;1278;22542;-54
2023/02/28 01:28:46;;;;;;;;;;;;;;;-0.32;79.05;101682.17;106130;1278;22554;-56
2023/02/28 01:31:16;;;;;;;;;;;;;;;-0.36;78.98;101680.32;106226;1278;24303;-55
2023/02/28 01:33:45;;;;;;;;;;;;;;;-0.38;79.28;101683.27;106280;1278;24391;-58
2023/02/28 01:36:16;;;;;;;;;;;;;;;-0.39;79.51;101682.05;106300;1275;25152;-56
2023/02/28 01:38:45;;;;;;;;;;;;;;;-0.42;79.57;101681.24;106278;1275;24398;-57
2023/02/28 01:41:16;;;;;;;;;;;;;;;-0.43;79.63;101677.00;106391;1272;23974;-55
2023/02/28 01:44:02;;;;;;;;;;;;;;;-0.43;79.70;101678.25;106343;1271;22585;-55
2023/02/28 01:46:33;;;;;;;;;;;;;;;-0.44;79.80;101674.02;106304;1278;22513;-56
2023/02/28 01:49:08;;;;;;;;;;;;;;;-0.44;79.64;101675.41;106295;1265;22779;-57
2023/02/28 01:51:45;;;;;;;;;;;;;;;-0.47;79.63;101679.67;106354;1278;22650;-57
2023/02/28 01:54:17;;;;;;;;;;;;;;;-0.48;79.59;101681.86;106162;1278;22506;-59
2023/02/28 01:56:48;;;;;;;;;;;;;;;-0.48;79.49;101678.98;106132;1278;22518;-54
2023/02/28 01:59:22;;;;;;;;;;;;;;;-0.47;79.69;101680.86;106260;1267;22507;-57
2023/02/28 02:01:51;;;;;;;;;;;;;;;-0.47;79.84;101678.36;106208;1271;25424;-55
2023/02/28 02:04:21;;;;;;;;;;;;;;;-0.48;79.61;101675.13;106161;1278;22593;-57
2023/02/28 02:06:50;;;;;;;;;;;;;;;-0.48;79.91;101681.48;106160;1277;24234;-57
2023/02/28 02:09:20;;;;;;;;;;;;;;;-0.48;79.82;101684.63;106412;1277;22624;-58
2023/02/28 02:11:49;;;;;;;;;;;;;;;-0.46;79.67;101684.09;106420;1269;22567;-56
2023/02/28 02:14:29;;;;;;;;;;;;;;;-0.45;79.77;101682.85;106225;1277;24278;-54
2023/02/28 02:17:05;;;;;;;;;;;;;;;-0.42;79.89;101680.23;106188;1278;22504;-56
2023/02/28 02:19:45;;;;;;;;;;;;;;;-0.40;80.02;101680.11;106343;1278;22511;-56
2023/02/28 02:22:29;;;;;;;;;;;;;;;-0.40;79.97;101675.17;106169;1278;25411;-56
2023/02/28 02:25:10;;;;;;;;;;;;;;;-0.40;79.74;101675.31;106127;1278;25468;-54
2023/02/28 02:27:59;;;;;;;;;;;;;;;-0.40;79.94;101677.44;106188;1274;24615;-57
2023/02/28 02:30:51;;;;;;;;;;;;;;;-0.41;80.00;101674.52;106266;1273;24272;-56
2023/02/28 02:33:40;;;;;;;;;;;;;;;-0.42;79.96;101675.98;105991;1282;24351;-57
2023/02/28 02:36:12;;;;;;;;;;;;;;;-0.45;80.07;101678.77;105407;1286;22539;-56
2023/02/28 02:38:47;;;;;;;;;;;;;;;-0.48;80.08;101675.28;105492;1289;22535;-55
2023/02/28 02:41:19;;;;;;;;;;;;;;;-0.49;80.36;101675.98;105677;1288;24387;-55
2023/02/28 02:43:52;;;;;;;;;;;;;;;-0.48;80.28;101672.46;105436;1289;25427;-56
2023/02/28 02:46:24;;;;;;;;;;;;;;;-0.48;80.22;101669.41;105547;1274;22514;-55
2023/02/28 02:48:55;;;;;;;;;;;;;;;-0.51;80.11;101670.78;105423;1286;22653;-56
2023/02/28 02:51:25;;;;;;;;;;;;;;;-0.54;80.12;101668.05;105527;1273;22526;-54
2023/02/28 02:53:56;;;;;;;;;;;;;;;-0.54;80.06;101673.95;105530;1286;25964;-56
2023/02/28 02:56:28;;;;;;;;;;;;;;;-0.54;80.16;101671.66;105427;1289;25342;-53
2023/02/28 02:59:01;;;;;;;;;;;;;;;-0.57;80.23;101666.69;105572;1289;24185;-54
2023/02/28 03:01:32;;;;;;;;;;;;;;;-0.58;80.36;101668.54;105446;1289;25248;-57
2023/02/28 03:04:02;;;;;;;;;;;;;;;-0.57;80.62;101670.36;105533;1274;22577;-54
2023/02/28 03:06:31;;;;;;;;;;;;;;;-0.56;80.60;101673.52;105508;1273;22752;-56
2023/02/28 03:09:02;;;;;;;;;;;;;;;-0.56;80.68;101670.67;105442;1286;25353;-54
2023/02/28 03:11:32;;;;;;;;;;;;;;;-0.56;80.63;101667.79;105791;1285;26421;-55
2023/02/28 03:14:09;;;;;;;;;;;;;;;-0.56;80.52;101673.91;105933;1278;23811;-57
2023/02/28 03:16:46;;;;;;;;;;;;;;;-0.56;80.44;101672.57;106374;1278;22640;-56
2023/02/28 03:19:24;;;;;;;;;;;;;;;-0.56;80.58;101677.52;106226;1278;22511;-54
2023/02/28 03:21:59;;;;;;;;;;;;;;;-0.58;80.39;101677.80;106179;1275;24244;-54
2023/02/28 03:24:32;;;;;;;;;;;;;;;-0.60;80.66;101677.52;106151;1278;24282;-56
2023/02/28 03:27:06;;;;;;;;;;;;;;;-0.60;80.60;101679.73;106324;1274;23936;-54
2023/02/28 03:29:37;;;;;;;;;;;;;;;-0.58;80.83;101675.91;106231;1278;22513;-56
2023/02/28 03:32:14;;;;;;;;;;;;;;;-0.59;80.68;101681.14;106137;1278;22724;-57
2023/02/28 03:34:47;;;;;;;;;;;;;;;-0.61;80.58;101678.67;106226;1278;22522;-56
2023/02/28 03:37:20;;;;;;;;;;;;;;;-0.64;80.59;101682.24;106139;1272;22635;-55
2023/02/28 03:39:52;;;;;;;;;;;;;;;-0.67;80.66;101686.83;106313;1278;25438;-55
2023/02/28 03:42:23;;;;;;;;;;;;;;;-0.70;80.62;101685.84;106317;1279;24391;-57
2023/02/28 03:44:55;;;;;;;;;;;;;;;-0.69;80.86;101689.77;106165;1278;26390;-55
2023/02/28 03:47:26;;;;;;;;;;;;;;;-0.69;80.86;101694.31;106242;1278;26422;-54
2023/02/28 03:49:57;;;;;;;;;;;;;;;-0.68;80.95;101696.83;106170;1278;25481;-53
2023/02/28 03:52:30;;;;;;;;;;;;;;;-0.69;81.02;101694.95;106156;1274;24395;-54
2023/02/28 03:55:06;;;;;;;;;;;;;;;-0.71;80.84;101690.76;106172;1263;22511;-54
2023/02/28 03:57:39;;;;;;;;;;;;;;;-0.73;80.79;101691.27;106268;1278;24303;-54
2023/02/28 04:00:13;;;;;;;;;;;;;;;-0.72;81.06;101691.67;106275;1263;22516;-53
2023/02/28 04:02:42;;;;;;;;;;;;;;;-0.74;81.08;101695.56;106201;1278;22508;-53
2023/02/28 04:05:12;;;;;;;;;;;;;;;-0.74;81.39;101697.59;106230;1278;24342;-56
2023/02/28 04:07:41;;;;;;;;;;;;;;;-0.76;81.31;101697.48;106174;1278;22636;-56
2023/02/28 04:10:12;;;;;;;;;;;;;;;-0.77;81.32;101700.52;106203;1278;23903;-57
2023/02/28 04:12:41;;;;;;;;;;;;;;;-0.78;81.41;101700.81;106457;1276;24206;-56
2023/02/28 04:15:11;;;;;;;;;;;;;;;-0.78;81.35;101699.80;106258;1271;23169;-56
2023/02/28 04:17:40;;;;;;;;;;;;;;;-0.78;81.36;101706.30;106332;1265;22642;-57
2023/02/28 04:20:11;;;;;;;;;;;;;;;-0.81;81.24;101707.81;106363;1272;22844;-56
2023/02/28 04:22:40;;;;;;;;;;;;;;;-0.86;80.95;101707.83;106465;1272;25236;-56
2023/02/28 04:25:10;;;;;;;;;;;;;;;-0.88;81.04;101709.12;106310;1278;22566;-57
2023/02/28 04:27:39;;;;;;;;;;;;;;;-0.89;81.35;101705.73;106277;1278;22928;-55
2023/02/28 04:30:10;;;;;;;;;;;;;;;-0.89;81.40;101709.58;106365;1274;24369;-57
2023/02/28 04:32:39;;;;;;;;;;;;;;;-0.89;81.56;101711.92;106391;1278;22514;-57
2023/02/28 04:35:09;;;;;;;;;;;;;;;-0.89;81.58;101717.65;106482;1278;24212;-57
2023/02/28 04:37:38;;;;;;;;;;;;;;;-0.88;81.75;101715.23;106853;1278;22505;-59
2023/02/28 04:40:09;;;;;;;;;;;;;;;-0.88;81.65;101719.54;106443;1278;24220;-57
2023/02/28 04:42:38;;;;;;;;;;;;;;;-0.89;81.63;101711.93;106548;1274;24319;-58
2023/02/28 04:45:10;;;;;;;;;;;;;;;-0.88;81.62;101715.79;106512;1272;22564;-57
2023/02/28 04:47:40;;;;;;;;;;;;;;;-0.88;81.71;101712.42;106531;1277;22504;-60
2023/02/28 04:50:10;;;;;;;;;;;;;;;-0.86;81.83;101714.64;106489;1278;23058;-57
2023/02/28 04:52:39;;;;;;;;;;;;;;;-0.83;81.89;101715.23;106490;1278;22469;-58
2023/02/28 04:55:09;;;;;;;;;;;;;;;-0.83;81.75;101716.48;106401;1277;23952;-57
2023/02/28 04:57:38;;;;;;;;;;;;;;;-0.87;81.72;101716.20;106526;1277;22515;-58
2023/02/28 05:00:11;;;;;;;;;;;;;;;-0.88;81.57;101716.34;106467;1277;22536;-57
2023/02/28 05:02:40;;;;;;;;;;;;;;;-0.89;81.33;101721.41;106667;1278;22597;-55
2023/02/28 05:05:09;;;;;;;;;;;;;;;-0.89;81.06;101723.38;106468;1277;28926;-57
2023/02/28 05:07:39;;;;;;;;;;;;;;;-0.87;81.23;101721.69;106499;1278;25796;-57
2023/02/28 05:10:09;;;;;;;;;;;;;;;-0.84;81.26;101720.23;106449;1278;25262;-58
2023/02/28 05:12:38;;;;;;;;;;;;;;;-0.84;81.24;101720.63;106811;1278;26591;-57
2023/02/28 05:15:09;;;;;;;;;;;;;;;-0.86;81.15;101722.02;106323;1278;22516;-56
2023/02/28 05:17:38;;;;;;;;;;;;;;;-0.87;81.38;101723.95;106423;1267;22862;-59
2023/02/28 05:20:10;;;;;;;;;;;;;;;-0.88;81.54;101722.61;106631;1278;22546;-67
2023/02/28 05:22:39;;;;;;;;;;;;;;;-0.88;81.47;101722.83;106904;1278;22528;-68
2023/02/28 05:25:11;;;;;;;;;;;;;;;-0.89;81.46;101725.87;106721;1275;25232;-60
2023/02/28 05:27:41;;;;;;;;;;;;;;;-0.90;81.41;101726.72;106895;1274;24230;-60
2023/02/28 05:30:11;;;;;;;;;;;;;;;-0.90;81.70;101728.13;106680;1274;22515;-60
2023/02/28 05:32:42;;;;;;;;;;;;;;;-0.88;81.76;101724.88;106750;1278;22640;-59
2023/02/28 05:35:12;;;;;;;;;;;;;;;-0.86;81.75;101729.45;106813;1278;25410;-58
2023/02/28 05:37:41;;;;;;;;;;;;;;;-0.85;81.91;101735.25;106557;1278;22637;-58
2023/02/28 05:40:11;;;;;;;;;;;;;;;-0.83;82.04;101737.17;106455;1278;24393;-59
2023/02/28 05:42:40;;;;;;;;;;;;;;;-0.84;81.85;101742.88;106578;1271;25760;-67
2023/02/28 05:45:10;;;;;;;;;;;;;;;-0.85;81.93;101744.96;106261;1273;22511;-58
2023/02/28 05:47:40;;;;;;;;;;;;;;;-0.83;82.10;101750.10;106331;1277;23815;-58
2023/02/28 05:50:10;;;;;;;;;;;;;;;-0.84;82.11;101751.18;106607;1264;22595;-57
2023/02/28 05:52:39;;;;;;;;;;;;;;;-0.85;82.15;101755.31;106428;1274;25298;-55
2023/02/28 05:55:10;;;;;;;;;;;;;;;-0.82;82.30;101759.81;106352;1278;22514;-56
2023/02/28 05:57:39;;;;;;;;;;;;;;;-0.82;82.34;101756.99;106375;1278;22510;-58
2023/02/28 06:00:09;;;;;;;;;;;;;;;-0.83;82.31;101762.70;106288;1278;25325;-57
2023/02/28 06:02:39;;;;;;;;;;;;;;;-0.83;82.35;101761.30;106605;1278;24259;-57
2023/02/28 06:05:14;;;;;;;;;;;;;;;-0.83;82.38;101763.82;106340;1272;24274;-56
2023/02/28 06:07:44;;;;;;;;;;;;;;;-0.83;82.21;101766.94;106446;1278;22639;-57
2023/02/28 06:10:13;;;;;;;;;;;;;;;-0.82;82.16;101772.05;106419;1276;22520;-57
2023/02/28 06:12:43;;;;;;;;;;;;;;;-0.81;82.22;101773.55;106395;1278;22501;-55
2023/02/28 06:15:14;;;;;;;;;;;;;;;-0.78;82.18;101779.55;106263;1277;24208;-57
2023/02/28 06:17:44;;;;;;;;;;;;;;;-0.76;82.11;101782.88;106380;1278;22518;-57
2023/02/28 06:20:14;;;;;;;;;;;;;;;-0.75;82.13;101786.20;106502;1278;25522;-58
2023/02/28 06:22:43;;;;;;;;;;;;;;;-0.73;81.66;101783.09;108453;1277;22569;-57
2023/02/28 06:25:13;;;;;;;;;;;;;;;-0.73;81.80;101782.55;106579;1277;23215;-57
2023/02/28 06:27:42;;;;;;;;;;;;;;;-0.72;81.47;101787.03;106435;1265;22517;-58
2023/02/28 06:30:13;;;;;;;;;;;;;;;-0.73;81.16;101789.83;106397;1272;22522;-58
2023/02/28 06:32:42;;;;;;;;;;;;;;;-0.71;81.40;101795.05;106552;1276;24217;-59
2023/02/28 06:35:11;;;;;;;;;;;;;;;-0.69;81.53;101794.21;106464;1272;22514;-57
2023/02/28 06:37:40;;;;;;;;;;;;;;;-0.70;81.07;101792.23;106520;1278;22534;-59
2023/02/28 06:40:12;;;;;;;;;;;;;;;-0.73;80.66;101792.96;106538;1278;24266;-57
2023/02/28 06:42:41;;;;;;;;;;;;;;;-0.77;80.56;101792.20;106582;1278;25432;-55
2023/02/28 06:45:12;;;;;;;;;;;;;;;-0.77;80.68;101796.48;106573;1264;24268;-57
2023/02/28 06:47:41;;;;;;;;;;;;;;;-0.77;80.30;101800.02;106705;1278;22518;-57
2023/02/28 06:50:13;;;;;;;;;;;;;;;-0.77;80.02;101800.17;106714;1278;22512;-58
2023/02/28 06:52:42;;;;;;;;;;;;;;;-0.77;79.15;101802.14;106520;1278;24221;-55
2023/02/28 06:55:11;;;;;;;;;;;;;;;-0.78;79.09;101803.84;106486;1276;24215;-59
2023/02/28 06:57:41;;;;;;;;;;;;;;;-0.77;79.41;101806.54;106532;1278;22662;-60
2023/02/28 07:00:11;;;;;;;;;;;;;;;-0.76;79.48;101805.77;106532;1278;22514;-57
2023/02/28 07:02:40;;;;;;;;;;;;;;;-0.75;79.46;101801.70;106586;1273;25415;-57
2023/02/28 07:05:10;;;;;;;;;;;;;;;-0.73;79.41;101800.64;106511;1264;25265;-57
2023/02/28 07:07:43;;;;;;;;;;;;;;;-0.73;79.37;101802.05;106759;1278;22515;-60
2023/02/28 07:10:15;;;;;;;;;;;;;;;-0.72;78.99;101805.52;106685;1278;25325;-55
2023/02/28 07:12:44;;;;;;;;;;;;;;;-0.70;78.57;101807.36;106580;1276;22508;-57
2023/02/28 07:15:14;;;;;;;;;;;;;;;-0.69;78.55;101806.84;106493;1278;25278;-57
2023/02/28 07:17:43;;;;;;;;;;;;;;;-0.66;78.34;101809.54;106509;1264;24212;-56
2023/02/28 07:20:13;;;;;;;;;;;;;;;-0.64;77.94;101810.67;106481;1273;22641;-55
2023/02/28 07:22:43;;;;;;;;;;;;;;;-0.64;77.64;101806.13;106605;1278;24334;-55
2023/02/28 07:25:12;;;;;;;;;;;;;;;-0.62;77.78;101808.20;106526;1278;25233;-59
2023/02/28 07:27:41;;;;;;;;;;;;;;;-0.61;76.78;101806.10;106529;1275;24233;-55
2023/02/28 07:30:12;;;;;;;;;;;;;;;-0.58;76.64;101805.30;106437;1275;22518;-55
2023/02/28 07:32:41;;;;;;;;;;;;;;;-0.54;76.53;101807.41;106315;1273;22518;-55
2023/02/28 07:35:11;;;;;;;;;;;;;;;-0.51;76.59;101807.70;106511;1272;22511;-56
2023/02/28 07:37:41;;;;;;;;;;;;;;;-0.48;76.44;101808.29;106514;1278;22608;-57
2023/02/28 07:40:12;;;;;;;;;;;;;;;-0.48;76.23;101817.23;106535;1278;22722;-58
2023/02/28 07:42:42;;;;;;;;;;;;;;;-0.47;76.07;101822.27;106557;1275;25415;-58
2023/02/28 07:45:12;;;;;;;;;;;;;;;-0.45;76.56;101817.52;106502;1278;25409;-57
2023/02/28 07:47:42;;;;;;;;;;;;;;;-0.43;76.30;101821.70;106540;1278;22514;-58
2023/02/28 07:50:13;;;;;;;;;;;;;;;-0.41;76.06;101824.10;106513;1278;25466;-58
2023/02/28 07:52:42;;;;;;;;;;;;;;;-0.38;76.20;101824.45;106786;1275;22518;-57
2023/02/28 07:55:13;;;;;;;;;;;;;;;-0.36;75.71;101821.98;106518;1274;22516;-56
2023/02/28 07:57:42;;;;;;;;;;;;;;;-0.31;75.09;101818.23;106542;1278;22528;-56
2023/02/28 08:00:13;;;;;;;;;;;;;;;-0.26;75.15;101818.47;106491;1272;25337;-57
2023/02/28 08:02:42;;;;;;;;;;;;;;;-0.21;74.93;101816.95;106746;1278;22530;-57
2023/02/28 08:05:12;;;;;;;;;;;;;;;-0.17;74.52;101817.66;106592;1272;22508;-57
2023/02/28 08:07:41;;;;;;;;;;;;;;;-0.13;74.59;101815.83;106510;1278;22511;-58
2023/02/28 08:10:11;;;;;;;;;;;;;;;-0.09;74.64;101818.73;106408;1278;25288;-57
2023/02/28 08:12:40;;;;;;;;;;;;;;;-0.07;74.47;101819.16;106808;1276;24755;-57
2023/02/28 08:15:11;;;;;;;;;;;;;;;-0.03;74.29;101817.56;106527;1264;24221;-59
2023/02/28 08:17:40;;;;;;;;;;;;;;;0.01;73.80;101811.52;106938;1260;23662;-59
2023/02/28 08:20:11;;;;;;;;;;;;;;;0.04;73.65;101816.98;106530;1273;22524;-59
2023/02/28 08:22:41;;;;;;;;;;;;;;;0.06;73.56;101811.42;106578;1278;22522;-57
2023/02/28 08:25:11;;;;;;;;;;;;;;;0.10;73.35;101811.11;106579;1276;24994;-55
2023/02/28 08:27:40;;;;;;;;;;;;;;;0.14;74.11;101809.81;106630;1270;23880;-57
2023/02/28 08:30:11;;;;;;;;;;;;;;;0.16;73.88;101809.55;106438;1273;24511;-59
2023/02/28 08:32:40;;;;;;;;;;;;;;;0.19;73.57;101812.02;106595;1272;24323;-57
2023/02/28 08:35:10;;;;;;;;;;;;;;;0.21;73.57;101814.40;106496;1278;24276;-59
2023/02/28 08:37:40;;;;;;;;;;;;;;;0.22;73.42;101813.71;106563;1278;22731;-59
2023/02/28 08:40:13;;;;;;;;;;;;;;;0.24;73.42;101813.02;106472;1277;23200;-56
2023/02/28 08:42:42;;;;;;;;;;;;;;;0.24;72.92;101815.31;106644;1274;22518;-58
2023/02/28 08:45:12;;;;;;;;;;;;;;;0.25;72.61;101814.14;106578;1267;22512;-57
2023/02/28 08:47:41;;;;;;;;;;;;;;;0.27;72.05;101817.70;106546;1278;25328;-57
2023/02/28 08:50:14;;;;;;;;;;;;;;;0.31;71.74;101811.79;106659;1276;24186;-57
2023/02/28 08:52:44;;;;;;;;;;;;;;;0.37;72.40;101812.11;106596;1278;24238;-55
2023/02/28 08:55:14;;;;;;;;;;;;;;;0.41;71.27;101814.59;106503;1276;185699;-58
2023/02/28 08:57:43;;;;;;;;;;;;;;;0.47;70.86;101818.86;106659;1278;23144;-56
2023/02/28 09:00:14;;;;;;;;;;;;;;;0.52;70.50;101819.70;106576;1278;22593;-55
2023/02/28 09:02:43;;;;;;;;;;;;;;;0.57;70.56;101818.98;106529;1263;22507;-56
2023/02/28 09:05:13;;;;;;;;;;;;;;;0.59;70.08;101819.08;106499;1272;24356;-55
2023/02/28 09:07:42;;;;;;;;;;;;;;;0.62;70.55;101811.98;106608;1276;25585;-57
2023/02/28 09:10:12;;;;;;;;;;;;;;;0.66;70.01;101811.86;106500;1275;22808;-57
2023/02/28 09:12:41;;;;;;;;;;;;;;;0.68;70.63;101810.95;106517;1273;22544;-58
2023/02/28 09:15:11;;;;;;;;;;;;;;;0.71;70.75;101812.15;106502;1265;22511;-56
2023/02/28 09:17:40;;;;;;;;;;;;;;;0.73;71.02;101810.94;106560;1264;25589;-56
2023/02/28 09:20:11;;;;;;;;;;;;;;;0.76;70.77;101803.73;106589;1272;22527;-57
2023/02/28 09:22:40;;;;;;;;;;;;;;;0.79;70.43;101806.06;106595;1278;22635;-56
2023/02/28 09:25:10;;;;;;;;;;;;;;;0.81;69.90;101803.10;106575;1278;22471;-56
2023/02/28 09:27:39;;;;;;;;;;;;;;;0.84;69.71;101802.73;106569;1276;24310;-57
2023/02/28 09:30:10;;;;;;;;;;;;;;;0.88;68.94;101806.23;106595;1271;25442;-57
2023/02/28 09:32:39;;;;;;;;;;;;;;;0.93;69.56;101803.94;106570;1278;25585;-56
2023/02/28 09:35:13;;;;;;;;;;;;;;;0.98;68.98;101800.38;106684;1278;22529;-57
2023/02/28 09:37:42;;;;;;;;;;;;;;;1.03;70.39;101796.98;106600;1278;26605;-58
2023/02/28 09:40:17;;;;;;;;;;;;;;;1.06;68.31;101798.50;106644;1278;24912;-54
2023/02/28 09:42:49;;;;;;;;;;;;;;;1.11;69.06;101795.50;106580;1278;25538;-56
2023/02/28 09:45:22;;;;;;;;;;;;;;;1.20;68.94;101794.00;106534;1278;24241;-60
2023/02/28 09:47:53;;;;;;;;;;;;;;;1.26;68.25;101791.71;106571;1278;22666;-57
2023/02/28 09:50:29;;;;;;;;;;;;;;;1.29;68.29;101784.98;106568;1264;22528;-56
2023/02/28 09:52:59;;;;;;;;;;;;;;;1.32;67.69;101786.19;106551;1275;22639;-59
2023/02/28 09:55:30;;;;;;;;;;;;;;;1.34;67.04;101790.77;106813;1260;22518;-57
2023/02/28 09:58:01;;;;;;;;;;;;;;;1.34;66.09;101794.23;106643;1278;25518;-57
2023/02/28 10:00:32;;;;;;;;;;;;;;;1.32;67.72;101797.37;106578;1277;25279;-58
2023/02/28 10:03:24;;;;;;;;;;;;;;;1.32;68.14;101801.77;106644;1276;25444;-59
2023/02/28 10:05:58;;;;;;;;;;;;;;;1.32;67.11;101802.46;106630;1277;24135;-60
2023/02/28 10:08:29;;;;;;;;;;;;;;;1.34;67.60;101803.19;106574;1276;24185;-58
2023/02/28 10:11:01;;;;;;;;;;;;;;;1.36;67.39;101806.67;106718;1278;22725;-60
2023/02/28 10:13:34;;;;;;;;;;;;;;;1.39;66.87;101802.84;106720;1276;25517;-57
2023/02/28 10:16:07;;;;;;;;;;;;;;;1.44;66.66;101805.40;106665;1277;22541;-56
2023/02/28 10:18:42;;;;;;;;;;;;;;;1.51;66.28;101806.10;106667;1276;25130;-57
2023/02/28 10:21:15;;;;;;;;;;;;;;;1.55;65.75;101813.92;106825;1278;24375;-58
2023/02/28 10:23:47;;;;;;;;;;;;;;;1.55;66.37;101809.67;106688;1278;25322;-59
2023/02/28 10:26:17;;;;;;;;;;;;;;;1.54;66.64;101807.23;106673;1278;24229;-58
2023/02/28 10:28:47;;;;;;;;;;;;;;;1.53;66.08;101804.71;106603;1273;22516;-55
2023/02/28 10:31:19;;;;;;;;;;;;;;;1.52;65.99;101801.88;106610;1274;26539;-57
2023/02/28 10:33:48;;;;;;;;;;;;;;;1.53;66.75;101800.06;106679;1268;26044;-57
2023/02/28 10:36:19;;;;;;;;;;;;;;;1.53;66.79;101798.81;106696;1276;25524;-56
2023/02/28 10:38:50;;;;;;;;;;;;;;;1.55;66.55;101796.08;106604;1275;24247;-59
2023/02/28 10:41:28;;;;;;;;;;;;;;;1.57;66.29;101796.33;106609;1272;22806;-60
2023/02/28 10:44:11;;;;;;;;;;;;;;;1.58;65.22;101796.80;106719;1278;22523;-60
2023/02/28 10:46:40;;;;;;;;;;;;;;;1.64;64.41;101797.80;106613;1272;22524;-58
2023/02/28 10:49:15;;;;;;;;;;;;;;;1.65;64.16;101794.73;106655;1276;24251;-59
2023/02/28 10:51:45;;;;;;;;;;;;;;;1.65;64.19;101788.85;106749;1278;22645;-58
2023/02/28 10:54:19;;;;;;;;;;;;;;;1.67;64.77;101786.80;106611;1276;22558;-58
2023/02/28 10:57:06;;;;;;;;;;;;;;;1.72;64.54;101784.25;106630;1276;22523;-58
2023/02/28 10:59:36;;;;;;;;;;;;;;;1.74;64.31;101787.89;106695;1272;27673;-58
2023/02/28 11:02:29;;;;;;;;;;;;;;;1.75;64.12;101785.29;106650;1273;22523;-58
2023/02/28 11:04:58;;;;;;;;;;;;;;;1.76;64.17;101777.28;106651;1278;22519;-58
2023/02/28 11:07:28;;;;;;;;;;;;;;;1.81;64.76;101780.86;106653;1278;24217;-57
2023/02/28 11:09:59;;;;;;;;;;;;;;;1.84;64.10;101776.80;106751;1271;22514;-55
2023/02/28 11:12:30;;;;;;;;;;;;;;;1.89;64.51;101780.92;106715;1278;25504;-55
2023/02/28 11:15:01;;;;;;;;;;;;;;;1.89;64.55;101780.20;106651;1274;22546;-57
2023/02/28 11:17:31;;;;;;;;;;;;;;;1.89;64.31;101778.80;106675;1274;22587;-57
2023/02/28 11:20:03;;;;;;;;;;;;;;;1.91;64.56;101778.65;106634;1278;24234;-58
2023/02/28 11:22:35;;;;;;;;;;;;;;;1.93;64.78;101775.21;106774;1271;25332;-59
2023/02/28 11:25:08;;;;;;;;;;;;;;;1.95;63.98;101774.59;106641;1276;23887;-58
2023/02/28 11:27:48;;;;;;;;;;;;;;;1.97;63.82;101771.45;106643;1278;23927;-56
2023/02/28 11:30:29;;;;;;;;;;;;;;;1.99;63.26;101766.35;106820;1277;22747;-55
2023/02/28 11:32:58;;;;;;;;;;;;;;;2.06;63.90;101768.29;106727;1278;23030;-59
2023/02/28 11:35:31;;;;;;;;;;;;;;;2.13;64.16;101769.83;106638;1263;22648;-58
2023/02/28 11:38:00;;;;;;;;;;;;;;;2.16;62.97;101768.66;106665;1278;22566;-56
2023/02/28 11:40:37;;;;;;;;;;;;;;;2.15;63.19;101764.56;106578;1260;23044;-57
2023/02/28 11:43:13;;;;;;;;;;;;;;;2.18;62.98;101763.55;106606;1275;22533;-59
2023/02/28 11:45:46;;;;;;;;;;;;;;;2.22;62.77;101771.77;106705;1278;22514;-55
2023/02/28 11:48:19;;;;;;;;;;;;;;;2.21;63.36;101765.79;106758;1278;24359;-56
2023/02/28 11:50:53;;;;;;;;;;;;;;;2.23;63.19;101762.33;106677;1260;24725;-58
2023/02/28 11:53:32;;;;;;;;;;;;;;;2.26;62.91;101758.26;106643;1278;26462;-57
2023/02/28 11:56:04;;;;;;;;;;;;;;;2.33;63.37;101754.42;106622;1278;24816;-55
2023/02/28 11:58:43;;;;;;;;;;;;;;;2.35;63.47;101751.98;106709;1273;22577;-57
2023/02/28 12:01:21;;;;;;;;;;;;;;;2.39;63.40;101753.73;106682;1278;26007;-58
2023/02/28 12:03:58;;;;;;;;;;;;;;;2.38;63.17;101753.11;106789;1278;25279;-57
2023/02/28 12:06:31;;;;;;;;;;;;;;;2.38;62.79;101747.03;106733;1267;22522;-59
2023/02/28 12:09:09;;;;;;;;;;;;;;;2.37;62.16;101740.74;106658;1278;22638;-57
2023/02/28 12:11:47;;;;;;;;;;;;;;;2.41;62.40;101739.73;106684;1270;25410;-58
2023/02/28 12:14:33;;;;;;;;;;;;;;;2.47;62.60;101738.11;106665;1272;22770;-58
2023/02/28 12:17:13;;;;;;;;;;;;;;;2.52;62.85;101728.43;106658;1278;25465;-60
2023/02/28 12:19:46;;;;;;;;;;;;;;;2.57;63.57;101724.27;106665;1278;22510;-55
2023/02/28 12:22:25;;;;;;;;;;;;;;;2.62;63.20;101725.88;106627;1271;24267;-58
2023/02/28 12:25:04;;;;;;;;;;;;;;;2.67;63.37;101724.30;106648;1275;22518;-57
2023/02/28 12:27:35;;;;;;;;;;;;;;;2.72;62.98;101722.83;106710;1272;24277;-57
2023/02/28 12:30:07;;;;;;;;;;;;;;;2.77;63.22;101718.83;106667;1271;25464;-58
2023/02/28 12:32:38;;;;;;;;;;;;;;;2.79;63.06;101720.25;106737;1278;22520;-56
2023/02/28 12:35:13;;;;;;;;;;;;;;;2.76;62.95;101716.45;106753;1263;22518;-58
2023/02/28 12:37:45;;;;;;;;;;;;;;;2.74;63.17;101720.23;106772;1278;22624;-58
2023/02/28 12:40:17;;;;;;;;;;;;;;;2.72;63.36;101717.63;106730;1271;24095;-58
2023/02/28 12:42:50;;;;;;;;;;;;;;;2.73;62.79;101711.31;106763;1271;22535;-57
2023/02/28 12:45:20;;;;;;;;;;;;;;;2.76;63.23;101707.48;106661;1271;24150;-56
2023/02/28 12:47:53;;;;;;;;;;;;;;;2.76;63.19;101705.42;106702;1274;22516;-57
2023/02/28 12:50:23;;;;;;;;;;;;;;;2.75;62.55;101702.90;106823;1278;22510;-57
2023/02/28 12:52:57;;;;;;;;;;;;;;;2.74;62.62;101697.00;106853;1278;22728;-57